createdAt,value
2018-04-22T03:01:00.334Z,87.65
2018-04-22T03:02:00.701Z,87.93
2018-04-22T03:03:00.177Z,87.93
2018-04-22T03:04:00.379Z,87.93
2018-04-22T03:05:00.485Z,87.74
2018-04-22T03:06:00.658Z,88.22
2018-04-22T03:07:00.793Z,88.98
2018-04-22T03:08:01.037Z,89.17
2018-04-22T03:09:01.171Z,89.55
2018-04-22T03:10:01.361Z,89.94
2018-04-22T03:11:01.526Z,89.94
2018-04-22T03:12:01.661Z,89.65
2018-04-22T03:13:01.829Z,90.03
2018-04-22T03:14:01.974Z,90.03
2018-04-22T03:15:02.125Z,89.94
2018-04-22T03:16:02.293Z,90.03
2018-04-22T03:17:02.434Z,89.94
2018-04-22T03:18:02.643Z,89.94
2018-04-22T03:19:02.814Z,90.31
2018-04-22T03:20:02.995Z,90.70
2018-04-22T03:21:03.151Z,90.41
2018-04-22T03:22:03.333Z,90.31
2018-04-22T03:23:03.461Z,90.22
2018-04-22T03:24:03.606Z,90.41
2018-04-22T03:25:03.738Z,90.22
2018-04-22T03:26:03.952Z,89.84
2018-04-22T03:27:04.170Z,89.94
2018-04-22T03:28:04.407Z,89.75
2018-04-22T03:29:04.532Z,89.94
2018-04-22T03:30:04.698Z,90.22
2018-04-22T03:31:04.821Z,90.50
2018-04-22T03:32:05.094Z,90.50
2018-04-22T03:33:05.214Z,90.70
2018-04-22T03:34:05.388Z,90.60
2018-04-22T03:35:05.522Z,90.79
2018-04-22T03:36:05.718Z,91.17
2018-04-22T03:37:05.843Z,91.17
2018-04-22T03:38:06.016Z,91.74
2018-04-22T03:39:06.244Z,91.55
2018-04-22T03:40:06.370Z,92.13
2018-04-22T03:41:06.449Z,91.65
2018-04-22T03:42:06.624Z,92.13
2018-04-22T03:43:06.831Z,91.94
2018-04-22T03:44:07.023Z,92.13
2018-04-22T03:45:07.100Z,92.03
2018-04-22T03:46:07.340Z,92.69
2018-04-22T03:47:07.492Z,92.79
2018-04-22T03:48:07.625Z,92.22
2018-04-22T03:49:07.762Z,91.94
2018-04-22T03:50:07.976Z,92.22
2018-04-22T03:51:08.081Z,92.32
2018-04-22T03:52:08.243Z,92.32
2018-04-22T03:53:08.429Z,92.60
2018-04-22T03:54:08.595Z,92.50
2018-04-22T03:55:08.772Z,92.50
2018-04-22T03:56:08.885Z,92.79
2018-04-22T03:57:09.096Z,92.69
2018-04-22T03:58:09.261Z,93.27
2018-04-22T03:59:09.440Z,92.69
2018-04-22T04:00:09.689Z,92.41
2018-04-22T04:01:09.760Z,92.18
2018-04-22T04:02:09.888Z,92.27
2018-04-22T04:03:10.003Z,92.65
2018-04-22T04:04:10.222Z,92.08
2018-04-22T04:05:10.413Z,91.60
2018-04-22T04:06:10.563Z,91.60
2018-04-22T04:07:10.759Z,91.51
2018-04-22T04:08:10.920Z,91.31
2018-04-22T04:09:11.072Z,91.22
2018-04-22T04:10:11.263Z,91.60
2018-04-22T04:11:11.376Z,91.41
2018-04-22T04:12:11.579Z,91.60
2018-04-22T04:13:11.740Z,92.18
2018-04-22T04:14:11.958Z,91.89
2018-04-22T04:15:12.014Z,92.08
2018-04-22T04:16:12.233Z,91.70
2018-04-22T04:17:12.354Z,91.13
2018-04-22T04:18:12.602Z,91.60
2018-04-22T04:19:12.662Z,91.13
2018-04-22T04:20:12.872Z,90.84
2018-04-22T04:21:13.067Z,90.98
2018-04-22T04:22:13.196Z,90.60
2018-04-22T04:23:13.400Z,90.70
2018-04-22T04:24:13.504Z,90.36
2018-04-22T04:25:13.719Z,90.36
2018-04-22T04:26:13.856Z,90.36
2018-04-22T04:27:13.957Z,90.27
2018-04-22T04:28:14.180Z,90.46
2018-04-22T04:29:14.335Z,91.03
2018-04-22T04:30:14.466Z,91.41
2018-04-22T04:31:14.635Z,91.51
2018-04-22T04:32:14.823Z,91.65
2018-04-22T04:33:14.966Z,91.03
2018-04-22T04:34:15.178Z,90.65
2018-04-22T04:35:15.265Z,90.27
2018-04-22T04:36:15.428Z,89.84
2018-04-22T04:37:15.678Z,89.79
2018-04-22T04:38:15.823Z,89.61
2018-04-22T04:39:15.940Z,90.12
2018-04-22T04:40:16.268Z,89.84
2018-04-22T04:43:11.056Z,89.65
2018-04-22T04:44:03.639Z,89.84
2018-04-22T04:45:03.951Z,89.46
2018-04-22T04:47:04.071Z,89.84
2018-04-22T04:48:02.485Z,89.84
2018-04-22T04:49:02.263Z,89.75
2018-04-22T04:50:02.611Z,89.84
2018-04-22T04:51:02.680Z,89.46
2018-04-22T04:52:02.843Z,89.84
2018-04-22T04:53:02.962Z,90.12
2018-04-22T04:54:03.094Z,90.60
2018-04-22T04:55:03.320Z,90.12
2018-04-22T04:56:03.571Z,90.03
2018-04-22T04:57:03.618Z,89.75
2018-04-22T04:58:03.802Z,89.46
2018-04-22T04:59:03.990Z,88.98
2018-04-22T05:00:04.160Z,88.70
2018-04-22T05:01:04.278Z,88.60
2018-04-22T05:02:04.872Z,88.79
2018-04-22T05:03:04.622Z,88.79
2018-04-22T05:04:04.969Z,88.31
2018-04-22T05:05:05.163Z,88.22
2018-04-22T05:06:05.325Z,87.93
2018-04-22T05:07:05.372Z,87.84
2018-04-22T05:08:05.527Z,88.03
2018-04-22T05:09:06.054Z,87.93
2018-04-22T05:10:06.039Z,88.22
2018-04-22T05:11:06.078Z,87.93
2018-04-22T05:12:06.356Z,88.12
2018-04-22T05:13:06.567Z,88.22
2018-04-22T05:14:06.573Z,88.12
2018-04-22T05:15:06.702Z,88.03
2018-04-22T05:16:06.983Z,88.22
2018-04-22T05:17:07.172Z,88.12
2018-04-22T05:18:07.299Z,88.51
2018-04-22T05:19:08.682Z,88.51
2018-04-22T05:20:09.068Z,89.46
2018-04-22T05:21:09.773Z,89.94
2018-04-22T05:22:08.405Z,90.70
2018-04-22T05:23:08.163Z,91.36
2018-04-22T05:24:08.397Z,91.17
2018-04-22T05:25:08.470Z,91.74
2018-04-22T05:26:08.601Z,91.17
2018-04-22T05:27:08.805Z,90.50
2018-04-22T05:28:09.015Z,90.26
2018-04-22T05:29:09.298Z,89.75
2018-04-22T05:30:09.269Z,89.40
2018-04-22T05:31:09.504Z,88.84
2018-04-22T05:32:09.612Z,87.98
2018-04-22T05:33:09.873Z,87.60
2018-04-22T05:34:09.994Z,87.69
2018-04-22T05:35:10.197Z,87.31
2018-04-22T05:36:12.590Z,87.31
2018-04-22T05:37:10.463Z,87.50
2018-04-22T05:38:10.660Z,87.21
2018-04-22T05:39:11.063Z,87.02
2018-04-22T05:41:58.607Z,87.12
2018-04-22T05:42:59.695Z,87.31
2018-04-22T05:43:57.735Z,87.93
2018-04-22T05:44:57.791Z,88.26
2018-04-22T05:45:57.741Z,88.26
2018-04-22T05:46:57.872Z,88.12
2018-04-22T05:47:58.004Z,88.21
2018-04-22T05:48:58.291Z,87.64
2018-04-22T05:49:58.933Z,88.02
2018-04-22T05:50:58.478Z,87.54
2018-04-22T05:51:58.676Z,87.26
2018-04-22T05:52:58.795Z,87.07
2018-04-22T05:53:59.035Z,87.07
2018-04-22T05:54:59.173Z,86.59
2018-04-22T05:55:59.474Z,86.59
2018-04-22T05:56:59.581Z,86.63
2018-04-22T05:57:59.744Z,86.44
2018-04-22T05:58:59.964Z,86.06
2018-04-22T06:00:00.154Z,86.54
2018-04-22T06:01:00.317Z,86.54
2018-04-22T06:02:00.470Z,86.06
2018-04-22T06:03:00.647Z,85.49
2018-04-22T06:04:00.809Z,85.77
2018-04-22T06:05:00.969Z,85.72
2018-04-22T06:06:01.147Z,85.53
2018-04-22T06:07:01.239Z,85.53
2018-04-22T06:08:01.468Z,85.53
2018-04-22T06:09:01.664Z,85.15
2018-04-22T06:10:01.826Z,84.52
2018-04-22T06:11:02.016Z,84.72
2018-04-22T06:12:02.125Z,85.00
2018-04-22T06:13:02.273Z,84.62
2018-04-22T06:14:02.482Z,84.14
2018-04-22T06:15:02.632Z,83.95
2018-04-22T06:16:02.776Z,83.67
2018-04-22T06:17:02.927Z,84.38
2018-04-22T06:18:03.089Z,83.67
2018-04-22T06:19:03.936Z,84.19
2018-04-22T06:20:03.432Z,84.28
2018-04-22T06:21:03.633Z,84.38
2018-04-22T06:22:03.751Z,83.80
2018-04-22T06:23:04.029Z,83.61
2018-04-22T06:24:04.093Z,82.94
2018-04-22T06:25:04.353Z,83.51
2018-04-22T06:26:04.480Z,82.75
2018-04-22T06:27:04.600Z,83.04
2018-04-22T06:28:04.719Z,82.65
2018-04-22T06:31:14.617Z,83.13
2018-04-22T06:34:03.974Z,82.60
2018-04-22T06:34:48.054Z,82.03
2018-04-22T06:35:44.303Z,82.22
2018-04-22T06:36:44.992Z,81.93
2018-04-22T06:37:43.824Z,81.74
2018-04-22T06:38:43.918Z,81.45
2018-04-22T06:39:44.121Z,80.54
2018-04-22T06:40:44.268Z,80.44
2018-04-22T06:41:44.388Z,80.06
2018-04-22T06:42:44.623Z,80.35
2018-04-22T06:43:44.748Z,80.44
2018-04-22T06:44:44.883Z,80.06
2018-04-22T06:45:45.108Z,79.87
2018-04-22T06:46:45.418Z,79.24
2018-04-22T06:47:45.415Z,79.14
2018-04-22T06:48:45.594Z,78.76
2018-04-22T06:49:46.031Z,78.38
2018-04-22T06:50:45.946Z,78.28
2018-04-22T06:51:46.105Z,78.19
2018-04-22T06:52:46.346Z,77.42
2018-04-22T06:53:46.454Z,77.94
2018-04-22T06:54:46.689Z,77.46
2018-04-22T06:55:46.750Z,77.46
2018-04-22T06:56:46.975Z,78.22
2018-04-22T06:57:47.138Z,77.08
2018-04-22T06:58:47.357Z,77.46
2018-04-22T06:59:47.433Z,77.21
2018-04-22T07:00:47.546Z,77.02
2018-04-22T07:01:47.823Z,76.54
2018-04-22T07:02:47.924Z,75.96
2018-04-22T07:03:48.072Z,75.58
2018-04-22T07:04:48.318Z,75.87
2018-04-22T07:05:48.463Z,76.25
2018-04-22T07:06:48.678Z,75.58
2018-04-22T07:07:48.805Z,75.01
2018-04-22T07:08:48.935Z,74.72
2018-04-22T07:09:49.152Z,75.20
2018-04-22T07:10:49.249Z,75.39
2018-04-22T07:11:49.552Z,76.15
2018-04-22T07:12:49.730Z,76.06
2018-04-22T07:13:50.049Z,75.68
2018-04-22T07:14:50.059Z,75.58
2018-04-22T07:15:50.330Z,75.62
2018-04-22T07:16:50.305Z,76.15
2018-04-22T07:17:50.601Z,77.06
2018-04-22T07:18:51.017Z,76.48
2018-04-22T07:19:50.754Z,76.67
2018-04-22T07:20:50.955Z,77.44
2018-04-22T07:21:51.125Z,78.11
2018-04-22T07:22:51.969Z,78.20
2018-04-22T07:32:22.389Z,75.95
2018-04-22T07:35:02.003Z,73.87
2018-04-22T07:35:55.916Z,75.02
2018-04-22T07:38:58.658Z,73.87
2018-04-22T07:39:31.741Z,73.33
2018-04-22T07:40:31.778Z,72.56
2018-04-22T07:41:31.786Z,73.24
2018-04-22T07:42:32.132Z,72.95
2018-04-22T07:43:37.278Z,72.85
2018-04-22T07:44:35.617Z,72.95
2018-04-22T07:45:37.440Z,71.73
2018-04-22T07:46:35.117Z,72.31
2018-04-22T07:47:33.801Z,72.22
2018-04-22T07:48:33.251Z,71.73
2018-04-22T07:49:32.075Z,70.97
2018-04-22T07:50:31.275Z,71.39
2018-04-22T07:55:17.138Z,70.27
2018-04-22T08:00:33.656Z,70.30
2018-04-22T08:01:34.755Z,71.46
2018-04-22T08:02:34.129Z,69.63
2018-04-22T08:03:33.239Z,69.67
2018-04-22T08:04:39.959Z,66.39
2018-04-22T08:05:35.445Z,65.24
2018-04-22T08:06:33.252Z,64.40
2018-04-22T08:07:38.286Z,66.33
2018-04-22T08:08:35.854Z,65.56
2018-04-22T08:15:41.922Z,63.21
2018-04-22T08:23:26.257Z,62.28
2018-04-22T08:24:38.944Z,61.71
2018-04-22T08:25:30.484Z,60.55
2018-04-22T08:26:23.551Z,60.68
2018-04-22T08:27:30.793Z,60.58
2018-04-22T08:28:23.619Z,60.10
2018-04-22T08:29:36.425Z,60.96
2018-04-22T08:30:36.838Z,59.42
2018-04-22T08:38:19.678Z,58.00
2018-04-22T08:39:10.305Z,58.87
2018-04-22T08:40:10.414Z,61.28
2018-04-22T08:43:14.881Z,59.35
2018-04-22T08:44:13.355Z,58.36
2018-04-22T08:47:26.119Z,59.45
2018-04-22T08:48:28.509Z,59.74
2018-04-22T08:49:27.285Z,58.84
2018-04-22T08:50:27.010Z,58.19
2018-04-22T08:51:26.853Z,58.10
2018-04-22T08:52:28.206Z,57.71
2018-04-22T08:53:34.194Z,57.62
2018-04-22T08:57:52.461Z,51.72
2018-04-22T08:58:51.187Z,50.67
2018-04-22T08:59:44.503Z,49.15
2018-04-22T09:04:23.148Z,47.84
2018-04-22T09:05:25.000Z,47.50
2018-04-22T09:28:52.878Z,38.57
2018-04-22T09:30:00.066Z,37.89
2018-04-22T09:38:57.539Z,36.04
2018-04-22T09:39:49.042Z,35.96
2018-04-22T09:40:47.680Z,36.27
2018-04-22T09:41:47.291Z,35.78
2018-04-22T09:42:47.657Z,37.63
2018-04-22T09:43:47.618Z,35.69
2018-04-22T09:44:48.045Z,34.24
2018-04-22T09:45:48.121Z,34.24
2018-04-22T09:46:48.152Z,33.89
2018-04-22T09:47:48.188Z,34.86
2018-04-22T09:48:48.593Z,34.19
2018-04-22T09:49:49.117Z,32.34
2018-04-22T09:50:48.852Z,32.03
2018-04-22T09:51:48.970Z,30.79
2018-04-22T09:52:49.125Z,31.48
2018-04-22T09:53:49.578Z,31.57
2018-04-22T09:54:49.496Z,33.23
2018-04-22T09:55:49.691Z,31.48
2018-04-22T09:56:49.970Z,32.16
2018-04-22T09:57:50.556Z,32.06
2018-04-22T09:58:52.208Z,30.49
2018-04-22T09:59:50.300Z,30.91
2018-04-22T10:00:50.525Z,31.68
2018-04-22T10:01:50.751Z,31.41
2018-04-22T10:02:50.821Z,30.83
2018-04-22T10:03:50.988Z,30.82
2018-04-22T10:04:51.217Z,30.62
2018-04-22T10:05:51.520Z,31.41
2018-04-22T10:06:51.521Z,31.90
2018-04-22T10:07:51.832Z,32.48
2018-04-22T10:08:51.923Z,29.56
2018-04-22T10:09:52.809Z,29.48
2018-04-22T10:10:52.350Z,29.97
2018-04-22T10:11:52.680Z,30.94
2018-04-22T10:12:52.803Z,30.85
2018-04-22T10:13:53.619Z,28.50
2018-04-22T10:14:53.563Z,29.39
2018-04-22T10:15:53.255Z,29.59
2018-04-22T10:16:53.435Z,29.88
2018-04-22T10:17:53.659Z,28.72
2018-04-22T10:18:53.799Z,28.82
2018-04-22T10:19:53.958Z,28.61
2018-04-22T10:20:54.157Z,27.25
2018-04-22T10:21:54.399Z,27.55
2018-04-22T10:22:54.531Z,26.78
2018-04-22T10:23:54.785Z,26.18
2018-04-22T10:24:54.884Z,29.91
2018-04-22T10:25:55.033Z,29.33
2018-04-22T10:26:55.337Z,27.36
2018-04-22T10:27:57.130Z,28.36
2018-04-22T10:28:55.672Z,26.79
2018-04-22T10:29:55.841Z,27.57
2018-04-22T10:30:56.017Z,27.17
2018-04-22T10:31:56.229Z,27.45
2018-04-22T10:32:56.440Z,27.55
2018-04-22T10:33:56.545Z,25.89
2018-04-22T10:36:29.985Z,28.72
2018-04-22T10:37:31.479Z,31.37
2018-04-22T10:38:30.326Z,29.50
2018-04-22T10:39:30.383Z,27.25
2018-04-22T10:40:30.675Z,26.76
2018-04-22T10:41:31.735Z,27.66
2018-04-22T10:42:44.076Z,27.07
2018-04-22T10:43:34.156Z,25.81
2018-04-22T10:44:33.709Z,26.40
2018-04-22T10:45:34.859Z,26.20
2018-04-22T10:46:43.281Z,27.07
2018-04-22T10:47:34.605Z,25.99
2018-04-22T10:48:33.869Z,25.42
2018-04-22T10:51:09.028Z,24.63
2018-04-22T10:52:09.154Z,24.25
2018-04-22T10:53:08.837Z,26.21
2018-04-22T10:54:07.699Z,27.19
2018-04-22T10:55:07.543Z,26.52
2018-04-22T10:56:27.174Z,24.95
2018-04-22T10:57:12.672Z,26.42
2018-04-22T10:58:11.944Z,23.67
2018-04-22T10:59:08.930Z,24.47
2018-04-22T11:01:19.502Z,23.10
2018-04-22T11:02:10.977Z,24.11
2018-04-22T11:03:11.810Z,24.80
2018-04-22T11:04:11.822Z,23.90
2018-04-22T11:05:10.608Z,22.91
2018-04-22T11:07:27.626Z,22.38
2018-04-22T11:08:12.138Z,24.04
2018-04-22T11:09:12.635Z,23.35
2018-04-22T11:10:10.297Z,25.78
2018-04-22T11:11:10.498Z,24.41
2018-04-22T11:12:10.652Z,22.47
2018-04-22T11:13:11.187Z,23.45
2018-04-22T11:25:35.879Z,20.83
2018-04-22T11:26:33.328Z,19.96
2018-04-22T11:40:28.083Z,23.77
2018-04-22T11:41:16.381Z,22.47
2018-04-22T11:42:19.722Z,23.65
2018-04-22T11:52:44.829Z,22.56
2018-04-22T12:04:48.957Z,24.68
2018-04-22T12:11:50.974Z,27.62
2018-04-22T12:16:29.633Z,23.16
2018-04-22T12:17:32.399Z,21.78
2018-04-22T12:18:28.433Z,21.98
2018-04-22T12:19:41.970Z,21.59
2018-04-22T12:20:32.390Z,21.38
2018-04-22T12:21:31.447Z,22.94
2018-04-22T12:22:28.994Z,24.20
2018-04-22T12:25:18.089Z,22.92
2018-04-22T12:27:31.163Z,23.92
2018-04-22T12:42:25.070Z,27.33
2018-04-22T12:50:14.612Z,22.88
2018-04-22T13:03:56.996Z,18.29
2018-04-22T13:04:52.752Z,18.30
2018-04-22T13:05:45.364Z,15.94
2018-04-22T13:06:46.779Z,17.23
2018-04-22T13:07:44.919Z,17.42
2018-04-22T13:08:43.080Z,18.88
2018-04-22T13:31:39.037Z,13.98
2018-04-22T13:38:00.645Z,13.45
2018-04-22T13:40:03.160Z,13.64
2018-04-22T13:40:59.951Z,14.83
2018-04-22T13:42:00.099Z,15.13
2018-04-22T13:43:00.266Z,14.55
2018-04-22T13:44:00.345Z,13.27
2018-04-22T13:45:00.565Z,13.48
2018-04-22T13:46:00.707Z,11.90
2018-04-22T13:47:01.089Z,12.10
2018-04-22T13:48:01.119Z,12.39
2018-04-22T13:49:01.777Z,13.18
2018-04-22T13:50:01.589Z,12.90
2018-04-22T13:51:01.804Z,13.39
2018-04-22T13:52:01.973Z,13.40
2018-04-22T13:53:07.670Z,12.02
2018-04-22T13:54:02.366Z,12.71
2018-04-22T13:55:02.952Z,11.24
2018-04-22T13:56:02.738Z,13.43
2018-04-22T13:57:05.532Z,13.04
2018-04-22T13:58:03.762Z,13.92
2018-04-22T13:59:14.706Z,11.94
2018-04-22T14:08:59.385Z,11.13
2018-04-22T14:10:23.765Z,11.24
2018-04-22T14:11:04.762Z,11.93
2018-04-22T15:06:49.386Z,20.34
2018-04-22T15:16:10.880Z,22.97
2018-04-22T15:17:12.936Z,24.43
2018-04-22T15:18:08.614Z,21.99
2018-04-22T15:19:07.878Z,21.98
2018-04-22T15:20:08.371Z,22.76
2018-04-22T15:22:52.462Z,23.05
2018-04-22T15:49:04.239Z,26.79
2018-04-22T15:50:06.848Z,26.03
2018-04-22T15:51:07.243Z,26.42
2018-04-22T15:52:12.215Z,25.82
2018-04-22T15:56:44.717Z,25.73
2018-04-22T16:08:53.776Z,27.17
2018-04-22T16:11:41.621Z,29.50
2018-04-22T16:41:01.449Z,42.30
2018-04-22T16:44:14.454Z,41.99
2018-04-22T16:48:14.416Z,44.10
2018-04-22T17:56:33.611Z,52.50
2018-04-22T18:24:18.604Z,56.35
2018-04-22T18:27:25.365Z,57.02
2018-04-22T18:28:24.760Z,57.60
2018-04-22T18:29:23.907Z,57.89
2018-04-22T18:30:23.823Z,58.37
2018-04-22T19:05:36.372Z,64.40
2018-04-22T19:06:46.828Z,67.10
2018-04-22T19:07:37.218Z,70.75
2018-04-22T19:08:37.256Z,74.94
2018-04-22T19:09:37.899Z,77.44
2018-04-22T19:10:37.246Z,79.84
2018-04-22T19:11:37.540Z,79.32
2018-04-22T19:12:35.631Z,80.47
2018-04-22T19:13:35.594Z,81.49
2018-04-22T19:14:35.922Z,79.67
2018-04-22T19:15:35.992Z,79.53
2018-04-22T19:16:36.118Z,79.72
2018-04-22T19:17:36.311Z,80.68
2018-04-22T19:18:36.495Z,80.68
2018-04-22T19:19:36.594Z,80.97
2018-04-22T19:20:36.799Z,83.56
2018-04-22T19:21:36.933Z,83.65
2018-04-22T19:22:37.123Z,83.56
2018-04-22T19:23:37.239Z,83.56
2018-04-22T19:24:37.413Z,84.33
2018-04-22T19:25:37.570Z,84.86
2018-04-22T19:26:37.722Z,85.05
2018-04-22T19:27:37.910Z,85.72
2018-04-22T19:28:38.138Z,86.88
2018-04-22T19:29:38.254Z,85.92
2018-04-22T19:30:38.577Z,86.01
2018-04-22T19:31:38.607Z,86.97
2018-04-22T19:32:38.808Z,88.02
2018-04-22T19:33:38.928Z,86.21
2018-04-22T19:34:39.081Z,86.68
2018-04-22T19:35:39.263Z,86.97
2018-04-22T19:36:39.442Z,84.19
2018-04-22T19:37:39.730Z,84.77
2018-04-22T19:38:39.843Z,84.67
2018-04-22T19:39:39.989Z,84.28
2018-04-22T19:40:40.145Z,85.05
2018-04-22T19:41:40.396Z,86.21
2018-04-22T19:42:40.516Z,84.95
2018-04-22T19:43:40.609Z,85.05
2018-04-22T19:44:40.830Z,85.10
2018-04-22T19:45:41.009Z,86.25
2018-04-22T19:46:41.152Z,85.86
2018-04-22T19:47:41.283Z,85.86
2018-04-22T19:48:41.527Z,84.38
2018-04-22T19:49:41.646Z,83.08
2018-04-22T19:50:41.814Z,83.94
2018-04-22T19:51:41.977Z,84.52
2018-04-22T19:52:42.207Z,84.52
2018-04-22T19:53:42.404Z,82.60
2018-04-22T19:54:42.467Z,81.16
2018-04-22T19:55:42.624Z,82.79
2018-04-22T19:56:42.865Z,82.18
2018-04-22T19:57:42.989Z,84.86
2018-04-22T19:58:43.208Z,85.05
2018-04-22T19:59:43.329Z,84.09
2018-04-22T20:00:43.428Z,85.15
2018-04-22T20:01:43.701Z,84.09
2018-04-22T20:02:43.851Z,84.86
2018-04-22T20:03:43.953Z,85.53
2018-04-22T20:04:44.170Z,85.53
2018-04-22T20:05:44.338Z,86.30
2018-04-22T20:06:44.566Z,86.78
2018-04-22T20:07:44.681Z,88.12
2018-04-22T20:08:44.819Z,88.60
2018-04-22T20:09:44.953Z,88.75
2018-04-22T20:10:45.176Z,87.98
2018-04-22T20:11:45.406Z,87.45
2018-04-22T20:12:45.509Z,87.84
2018-04-22T20:13:45.640Z,88.51
2018-04-22T20:14:45.813Z,87.84
2018-04-22T20:15:46.041Z,87.93
2018-04-22T20:16:46.193Z,87.45
2018-04-22T20:17:46.337Z,87.74
2018-04-22T20:18:46.544Z,88.08
2018-04-22T20:19:46.668Z,89.23
2018-04-22T20:20:46.852Z,89.51
2018-04-22T20:21:47.046Z,89.71
2018-04-22T20:22:47.264Z,89.04
2018-04-22T20:23:47.403Z,89.42
2018-04-22T20:24:47.572Z,89.32
2018-04-22T20:25:47.675Z,89.61
2018-04-22T20:26:47.802Z,90.19
2018-04-22T20:27:47.995Z,90.62
2018-04-22T20:28:48.215Z,90.43
2018-04-22T20:29:48.460Z,91.10
2018-04-22T20:30:48.701Z,90.72
2018-04-22T20:31:48.931Z,90.86
2018-04-22T20:32:49.047Z,88.75
2018-04-22T20:33:49.207Z,89.51
2018-04-22T20:34:49.424Z,89.80
2018-04-22T20:35:49.661Z,90.47
2018-04-22T20:36:49.850Z,90.33
2018-04-22T20:37:50.059Z,90.33
2018-04-22T20:38:50.342Z,90.23
2018-04-22T20:39:50.348Z,90.33
2018-04-22T20:40:51.766Z,90.91
2018-04-22T20:41:50.754Z,91.10
2018-04-22T20:42:50.930Z,90.43
2018-04-22T20:43:51.143Z,88.61
2018-04-22T20:44:51.356Z,88.70
2018-04-22T20:45:51.501Z,89.28
2018-04-22T20:46:51.673Z,90.14
2018-04-22T20:47:52.122Z,90.43
2018-04-22T20:48:52.170Z,90.14
2018-04-22T20:49:53.124Z,90.43
2018-04-22T20:50:52.565Z,90.33
2018-04-22T20:51:52.574Z,90.05
2018-04-22T20:52:52.678Z,90.05
2018-04-22T20:53:53.194Z,90.33
2018-04-22T20:54:53.111Z,90.91
2018-04-22T20:55:53.408Z,90.14
2018-04-22T20:56:53.352Z,90.43
2018-04-22T20:57:53.623Z,91.39
2018-04-22T20:58:53.730Z,90.72
2018-04-22T20:59:53.920Z,91.00
2018-04-22T21:00:54.107Z,91.29
2018-04-22T21:01:54.628Z,90.72
2018-04-22T21:02:54.670Z,89.95
2018-04-22T21:03:54.698Z,90.05
2018-04-22T21:04:54.792Z,89.95
2018-04-22T21:05:54.917Z,89.66
2018-04-22T21:06:55.174Z,89.86
2018-04-22T21:07:55.278Z,90.23
2018-04-22T21:08:55.451Z,90.23
2018-04-22T21:09:55.746Z,90.53
2018-04-22T21:10:56.379Z,90.81
2018-04-22T21:11:56.248Z,90.33
2018-04-22T21:12:56.274Z,90.14
2018-04-22T21:13:57.565Z,90.05
2018-04-22T21:20:02.939Z,91.25
2018-04-22T21:21:04.814Z,90.86
2018-04-22T21:29:32.321Z,90.29
2018-04-22T21:43:23.987Z,92.58
